Terminal Aerodrome Forecast
Issued by NWS Amarillo, TX

Home | Current Version | Previous Version | Text Only | Print | Product List | Glossary On
Versions: 1 2 3 4 5 6 7 8 9 10 11 12 13 14 15 16 17 18 19 20
000
FTUS44 KAMA 301200 AAA
TAFDHT
TAF AMD
KDHT 301243Z 3013/3112 30007KT P6SM VCSH SCT010 OVC050
     FM301400 35006KT P6SM SCT020 OVC070
     FM310100 15008KT P6SM OVC030 PROB30 3103/3109 -TSRA OVC030CB=

USA.gov is the U.S. government's official web portal to all federal, state and local government web resources and services.